Terminal Aerodrome Forecast
Issued by NWS Sioux Falls, SD

Home | Current Version | Previous Version | Graphics & Text | Print | Product List | Glossary On
Versions: 1 2 3 4 5 6 7 8 9 10 11 12 13 14 15 16 17 18 19 20
000
FTUS43 KFSD 242206 AAB
TAFHON
TAF AMD
KHON 242206Z 2422/2518 30014KT P6SM SCT025 BKN120
     FM250000 33013KT P6SM SCT025
      TEMPO 2500/2502 BKN025
     FM250700 35011KT P6SM BKN060
     FM251000 36011KT P6SM BKN030=

USA.gov is the U.S. government's official web portal to all federal, state and local government web resources and services.